Cross City, FL

10:28 PM EDT on September 01, 2015 (GMT -0400)
Cross City | | Change Station
CLOSE
Current Station
Airport
Location: Cross City,
Elevation: 43 ft
Nearby Weather Stations

Elev 43 ft 29.64 °N, 83.10 °W | Updated 35 minutes ago

Clear
Clear
78 °F
Feels Like 78 °F
N
0
Wind Variable Wind from North
Gusts mph

Today
High -- | Low -- °F
--% Chance of Precip.
Yesterday
High -- | Low -- °F
Precip. -- in
7:09 AM 7:54 PM
Waning Gibbous, 84% visible
Pressure 30.05 in
Visibility -9999.0 miles
Clouds
Dew Point 76 °F
Humidity 93%
Rainfall 0.05 in
Snow Depth Not available.
UV Not available.
Pollen 6.50 out of 12
Air Quality Not available.
Flu Activity Not available.
METAR KCTY 020153Z AUTO 00000KT 26/24 A3005 RMK AO1 SLP176 T02560244
Pressure 30.05 in
Visibility -9999.0 miles
Clouds
Dew Point 76 °F
Humidity 93%
Rainfall 0.05 in
Snow Depth Not available.
UV Not available.
Pollen 6.50 out of 12
Air Quality Not available.
Flu Activity Not available.
METAR KCTY 020153Z AUTO 00000KT 26/24 A3005 RMK AO1 SLP176 T02560244

10-Day Weather Forecast

×

Almanac

Astronomy

Sep. 01, 2015 Rise Set
Actual Time
Civil Twilight
Nautical Twilight
Astronomical Twilight
Moon
Length of Visible Light
Length of Day
Tomorrow will be .
, % of the Moon is Illuminated

Today's Extremes

State Highs State Lows

Community

WunderPhotos

Upload Photos

1,851,679 photos uploaded!

WunderBlogs® & News

Nearby

Air Quality

  Air Quality AQ Index Pollutant
Not available.

Snow Depth

Station Depth Elevation

Earthquake Activity

City Distance Mag. Time & Date
Minimum magnitude displayed is 2.5.

Coastal Water Temperatures

Place Temperature

Stations

Nearby Weather Stations

Station Location Temp. Windchill Dew Point Humidity Wind Precip. Elev Updated Type